createdAt,value
2018-03-15T00:02:09.403Z,1.60
2018-03-15T00:04:37.638Z,1.60
2018-03-15T00:07:05.884Z,1.50
2018-03-15T00:09:34.894Z,1.50
2018-03-15T00:12:03.913Z,1.50
2018-03-15T00:14:32.150Z,1.50
2018-03-15T00:17:01.145Z,1.50
2018-03-15T00:19:30.160Z,1.50
2018-03-15T00:21:58.388Z,1.50
2018-03-15T00:24:26.638Z,1.50
2018-03-15T00:26:54.873Z,1.50
2018-03-15T00:29:23.120Z,1.50
2018-03-15T00:31:52.117Z,1.50
2018-03-15T00:34:21.128Z,1.40
2018-03-15T00:36:49.356Z,1.40
2018-03-15T00:39:17.861Z,1.40
2018-03-15T00:41:46.089Z,1.30
2018-03-15T00:44:14.348Z,1.30
2018-03-15T00:46:42.580Z,1.20
2018-03-15T00:49:11.591Z,1.20
2018-03-15T00:51:39.828Z,1.20
2018-03-15T00:54:08.072Z,1.10
2018-03-15T00:56:36.316Z,1.20
2018-03-15T00:59:05.316Z,1.20
2018-03-15T01:01:33.557Z,1.10
2018-03-15T01:04:02.564Z,1.10
2018-03-15T01:06:30.807Z,1.10
2018-03-15T01:09:00.061Z,1.10
2018-03-15T01:11:28.295Z,1.10
2018-03-15T01:13:57.300Z,1.00
2018-03-15T01:16:26.292Z,1.00
2018-03-15T01:18:55.305Z,1.00
2018-03-15T01:21:23.532Z,1.00
2018-03-15T01:23:51.763Z,1.00
2018-03-15T01:26:20.007Z,1.00
2018-03-15T01:28:48.240Z,1.00
2018-03-15T01:31:16.501Z,0.90
2018-03-15T01:33:44.730Z,0.90
2018-03-15T01:36:12.990Z,0.90
2018-03-15T01:38:41.213Z,0.90
2018-03-15T01:41:09.740Z,0.80
2018-03-15T01:43:37.968Z,0.80
2018-03-15T01:46:06.211Z,0.80
2018-03-15T01:48:34.449Z,0.80
2018-03-15T01:51:02.708Z,0.80
2018-03-15T01:53:30.945Z,0.80
2018-03-15T01:55:59.225Z,0.80
2018-03-15T01:58:27.453Z,0.80
2018-03-15T02:00:56.470Z,0.70
2018-03-15T02:03:24.697Z,0.70
2018-03-15T02:05:52.952Z,0.70
2018-03-15T02:08:21.189Z,0.60
2018-03-15T02:10:49.441Z,0.50
2018-03-15T02:13:18.445Z,0.60
2018-03-15T02:15:47.462Z,0.60
2018-03-15T02:18:15.701Z,0.50
2018-03-15T02:20:44.712Z,0.60
2018-03-15T02:23:12.940Z,0.50
2018-03-15T02:25:41.188Z,0.60
2018-03-15T02:28:09.420Z,0.50
2018-03-15T02:30:38.430Z,0.50
2018-03-15T02:33:06.657Z,0.40
2018-03-15T02:35:34.888Z,0.40
2018-03-15T02:38:03.132Z,0.40
2018-03-15T02:40:32.137Z,0.50
2018-03-15T02:43:00.385Z,0.40
2018-03-15T02:45:28.641Z,0.40
2018-03-15T02:47:56.928Z,0.50
2018-03-15T02:50:25.149Z,0.50
2018-03-15T02:52:53.447Z,0.50
2018-03-15T02:55:22.388Z,0.60
2018-03-15T02:57:51.400Z,0.60
2018-03-15T03:00:19.633Z,0.60
2018-03-15T03:02:47.879Z,0.70
2018-03-15T03:05:16.110Z,0.70
2018-03-15T03:07:44.354Z,0.70
2018-03-15T03:10:12.588Z,0.80
2018-03-15T03:12:40.836Z,0.80
2018-03-15T03:15:09.060Z,0.80
2018-03-15T03:17:37.300Z,0.80
2018-03-15T03:20:05.535Z,0.80
2018-03-15T03:22:34.544Z,0.80
2018-03-15T03:25:02.772Z,0.80
2018-03-15T03:27:31.024Z,0.80
2018-03-15T03:29:59.260Z,0.90
2018-03-15T03:32:28.265Z,0.90
2018-03-15T03:34:56.509Z,0.90
2018-03-15T03:37:24.768Z,0.90
2018-03-15T03:39:53.005Z,0.90
2018-03-15T03:42:21.269Z,0.90
2018-03-15T03:44:49.490Z,0.90
2018-03-15T03:47:17.754Z,0.80
2018-03-15T03:49:45.988Z,0.90
2018-03-15T03:52:14.229Z,0.80
2018-03-15T03:54:43.246Z,0.80
2018-03-15T03:57:11.483Z,0.80
2018-03-15T03:59:39.720Z,0.80
2018-03-15T04:02:07.948Z,0.80
2018-03-15T04:04:36.968Z,0.90
2018-03-15T04:07:05.513Z,0.90
2018-03-15T04:09:33.749Z,0.90
2018-03-15T04:12:01.990Z,0.80
2018-03-15T04:14:30.229Z,0.80
2018-03-15T04:16:59.229Z,0.80
2018-03-15T04:19:28.239Z,0.80
2018-03-15T04:21:56.469Z,0.80
2018-03-15T04:24:24.762Z,0.80
2018-03-15T04:26:52.969Z,0.80
2018-03-15T04:29:21.213Z,0.80
2018-03-15T04:31:50.218Z,0.80
2018-03-15T04:34:19.233Z,0.90
2018-03-15T04:36:47.469Z,0.90
2018-03-15T04:39:16.478Z,0.90
2018-03-15T04:41:44.711Z,0.90
2018-03-15T04:44:12.956Z,0.90
2018-03-15T04:46:41.193Z,0.80
2018-03-15T04:49:10.201Z,0.80
2018-03-15T04:51:38.441Z,0.80
2018-03-15T04:54:06.689Z,0.90
2018-03-15T04:56:34.921Z,0.80
2018-03-15T04:59:03.165Z,0.80
2018-03-15T05:01:32.178Z,0.80
2018-03-15T05:04:01.162Z,0.90
2018-03-15T05:06:30.176Z,0.90
2018-03-15T05:08:58.420Z,0.80
2018-03-15T05:11:27.424Z,0.80
2018-03-15T05:13:56.419Z,0.90
2018-03-15T05:16:24.668Z,0.80
2018-03-15T05:18:52.904Z,0.80
2018-03-15T05:21:21.144Z,0.80
2018-03-15T05:23:49.388Z,0.80
2018-03-15T05:26:17.628Z,0.90
2018-03-15T05:28:45.860Z,0.90
2018-03-15T05:31:14.116Z,0.90
2018-03-15T05:33:42.326Z,0.90
2018-03-15T05:36:10.572Z,0.90
2018-03-15T05:38:39.616Z,0.80
2018-03-15T05:41:07.842Z,0.80
2018-03-15T05:43:36.845Z,0.90
2018-03-15T05:46:05.177Z,0.90
2018-03-15T05:48:33.412Z,1.00
2018-03-15T05:51:01.665Z,1.00
2018-03-15T05:53:29.897Z,0.90
2018-03-15T05:55:58.144Z,1.00
2018-03-15T05:58:26.403Z,1.00
2018-03-15T06:00:54.706Z,1.00
2018-03-15T06:03:22.936Z,1.00
2018-03-15T06:05:51.176Z,1.00
2018-03-15T06:08:19.412Z,1.10
2018-03-15T06:10:47.656Z,1.10
2018-03-15T06:13:15.889Z,1.10
2018-03-15T06:15:44.120Z,1.10
2018-03-15T06:18:12.360Z,1.20
2018-03-15T06:20:41.360Z,1.20
2018-03-15T06:23:10.374Z,1.30
2018-03-15T06:25:38.608Z,1.20
2018-03-15T06:28:07.624Z,1.30
2018-03-15T06:30:35.862Z,1.30
2018-03-15T06:33:04.112Z,1.30
2018-03-15T06:35:32.344Z,1.30
2018-03-15T06:38:00.593Z,1.40
2018-03-15T06:40:28.836Z,1.40
2018-03-15T06:42:57.068Z,1.40
2018-03-15T06:45:25.303Z,1.40
2018-03-15T06:47:53.548Z,1.40
2018-03-15T06:50:21.793Z,1.50
2018-03-15T06:52:50.040Z,1.50
2018-03-15T06:55:19.045Z,1.60
2018-03-15T06:57:48.059Z,1.70
2018-03-15T07:00:16.319Z,1.60
2018-03-15T07:02:44.572Z,1.70
2018-03-15T07:05:13.569Z,2.30
2018-03-15T07:07:42.576Z,2.80
2018-03-15T07:10:10.804Z,2.80
2018-03-15T07:12:39.056Z,3.30
2018-03-15T07:15:07.288Z,3.70
2018-03-15T07:17:36.297Z,3.90
2018-03-15T07:20:04.530Z,3.90
2018-03-15T07:22:32.777Z,4.00
2018-03-15T07:25:01.008Z,3.90
2018-03-15T07:27:29.237Z,4.00
2018-03-15T07:29:57.485Z,3.90
2018-03-15T07:32:25.720Z,3.60
2018-03-15T07:34:54.737Z,3.50
2018-03-15T07:37:22.975Z,3.50
2018-03-15T07:39:51.224Z,3.50
2018-03-15T07:42:19.458Z,3.40
2018-03-15T07:44:47.712Z,3.40
2018-03-15T07:47:16.713Z,3.30
2018-03-15T07:49:44.961Z,3.30
2018-03-15T07:52:13.194Z,3.20
2018-03-15T07:54:41.441Z,3.20
2018-03-15T07:57:09.671Z,3.20
2018-03-15T07:59:37.908Z,3.30
2018-03-15T08:02:06.435Z,3.30
2018-03-15T08:04:34.681Z,3.30
2018-03-15T08:07:03.196Z,3.30
2018-03-15T08:09:31.428Z,3.40
2018-03-15T08:11:59.657Z,3.40
2018-03-15T08:14:27.913Z,3.50
2018-03-15T08:16:57.214Z,3.90
2018-03-15T08:19:25.449Z,4.00
2018-03-15T08:21:53.676Z,4.20
2018-03-15T08:24:21.923Z,4.40
2018-03-15T08:26:50.158Z,4.50
2018-03-15T08:29:18.397Z,4.60
2018-03-15T08:31:46.633Z,4.80
2018-03-15T08:34:14.873Z,4.70
2018-03-15T08:36:43.112Z,4.70
2018-03-15T08:39:12.117Z,4.90
2018-03-15T08:41:40.572Z,4.90
2018-03-15T08:44:08.816Z,5.20
2018-03-15T08:46:37.055Z,5.40
2018-03-15T08:49:05.304Z,5.50
2018-03-15T08:51:34.301Z,5.70
2018-03-15T08:54:03.298Z,5.90
2018-03-15T08:56:31.553Z,5.80
2018-03-15T08:58:59.779Z,6.10
2018-03-15T09:01:28.024Z,6.10
2018-03-15T09:03:56.481Z,6.30
2018-03-15T09:06:25.610Z,6.60
2018-03-15T09:08:53.719Z,6.60
2018-03-15T09:11:21.964Z,6.70
2018-03-15T09:13:50.198Z,6.70
2018-03-15T09:16:19.213Z,6.30
2018-03-15T09:18:47.447Z,6.30
2018-03-15T09:21:15.692Z,6.50
2018-03-15T09:23:43.921Z,6.50
2018-03-15T09:26:12.162Z,6.50
2018-03-15T09:28:40.391Z,6.70
2018-03-15T09:31:08.637Z,7.10
2018-03-15T09:33:37.633Z,7.20
2018-03-15T09:36:05.885Z,7.20
2018-03-15T09:38:34.116Z,7.10
2018-03-15T09:41:02.353Z,7.00
2018-03-15T09:43:30.585Z,7.10
2018-03-15T09:45:58.851Z,7.30
2018-03-15T09:48:27.078Z,7.30
2018-03-15T09:50:55.323Z,7.60
2018-03-15T09:53:23.577Z,7.70
2018-03-15T09:55:51.810Z,7.70
2018-03-15T09:58:20.057Z,7.90
2018-03-15T10:00:49.067Z,7.60
2018-03-15T10:03:17.312Z,7.60
2018-03-15T10:05:46.369Z,7.40
2018-03-15T10:08:14.593Z,7.30
2018-03-15T10:10:43.597Z,7.80
2018-03-15T10:13:12.251Z,7.80
2018-03-15T10:15:40.489Z,8.10
2018-03-15T10:18:09.506Z,8.40
2018-03-15T10:20:37.739Z,8.40
2018-03-15T10:23:05.993Z,8.60
2018-03-15T10:25:34.238Z,8.70
2018-03-15T10:28:02.465Z,8.80
2018-03-15T10:30:30.717Z,8.60
2018-03-15T10:35:59.642Z,8.80
2018-03-15T10:38:27.890Z,8.30
2018-03-15T10:40:56.125Z,8.50
2018-03-15T10:43:24.371Z,8.80
2018-03-15T10:45:52.629Z,9.10
2018-03-15T10:48:20.869Z,9.20
2018-03-15T10:50:49.868Z,10.00
2018-03-15T10:53:18.893Z,10.10
2018-03-15T10:55:47.128Z,10.10
2018-03-15T10:58:16.148Z,10.00
2018-03-15T11:00:49.939Z,10.00
2018-03-15T11:03:18.190Z,9.90
2018-03-15T11:05:48.977Z,9.90
2018-03-15T11:08:22.771Z,10.20
2018-03-15T11:10:51.008Z,10.30
2018-03-15T11:13:20.021Z,10.10
2018-03-15T11:15:48.260Z,10.00
2018-03-15T11:18:16.526Z,10.00
2018-03-15T11:20:44.793Z,9.80
2018-03-15T11:23:13.032Z,9.80
2018-03-15T11:25:41.280Z,9.50
2018-03-15T11:28:10.273Z,9.80
2018-03-15T11:30:39.287Z,9.80
2018-03-15T11:33:07.519Z,9.80
2018-03-15T11:35:36.531Z,9.90
2018-03-15T11:38:04.760Z,9.90
2018-03-15T11:40:33.017Z,10.00
2018-03-15T11:43:01.257Z,10.10
2018-03-15T11:45:29.509Z,10.00
2018-03-15T11:47:58.516Z,9.90
2018-03-15T11:50:27.521Z,9.90
2018-03-15T11:52:55.751Z,9.90
2018-03-15T11:55:23.997Z,9.60
2018-03-15T11:57:52.230Z,9.50
2018-03-15T12:00:21.246Z,9.90
2018-03-15T12:02:49.471Z,9.90
2018-03-15T12:05:17.716Z,9.70
2018-03-15T12:07:46.018Z,9.70
2018-03-15T12:10:14.197Z,9.40
2018-03-15T12:12:42.445Z,9.40
2018-03-15T12:15:10.688Z,9.40
2018-03-15T12:17:38.926Z,9.60
2018-03-15T12:20:07.938Z,9.90
2018-03-15T12:22:36.177Z,9.90
2018-03-15T12:25:04.420Z,9.60
2018-03-15T12:27:32.710Z,9.40
2018-03-15T12:30:00.960Z,9.60
2018-03-15T12:32:29.184Z,9.90
2018-03-15T12:34:58.482Z,9.70
2018-03-15T12:37:27.499Z,9.70
2018-03-15T12:39:55.720Z,9.70
2018-03-15T12:42:23.976Z,9.50
2018-03-15T12:44:52.420Z,9.50
2018-03-15T12:47:20.663Z,9.40
2018-03-15T12:49:48.893Z,9.20
2018-03-15T12:52:17.145Z,9.20
2018-03-15T12:54:45.384Z,9.20
2018-03-15T12:57:13.635Z,9.30
2018-03-15T12:59:41.856Z,9.10
2018-03-15T13:02:10.872Z,9.10
2018-03-15T13:04:39.102Z,9.10
2018-03-15T13:07:07.344Z,9.00
2018-03-15T13:09:35.576Z,9.20
2018-03-15T13:12:03.823Z,9.20
2018-03-15T13:14:32.057Z,9.20
2018-03-15T13:17:00.297Z,9.20
2018-03-15T13:19:28.528Z,9.30
2018-03-15T13:21:56.777Z,9.40
2018-03-15T13:24:25.005Z,9.40
2018-03-15T13:26:54.027Z,9.30
2018-03-15T13:29:22.256Z,9.20
2018-03-15T13:31:50.504Z,9.30
2018-03-15T13:34:18.738Z,9.10
2018-03-15T13:36:47.281Z,9.10
2018-03-15T13:39:15.511Z,9.10
2018-03-15T13:41:44.137Z,9.10
2018-03-15T13:44:12.336Z,9.30
2018-03-15T13:46:40.584Z,9.30
2018-03-15T13:49:08.838Z,9.10
2018-03-15T13:51:37.062Z,9.10
2018-03-15T13:54:05.308Z,9.00
2018-03-15T13:56:33.536Z,9.10
2018-03-15T13:59:01.780Z,9.00
2018-03-15T14:01:30.019Z,9.00
2018-03-15T14:03:58.260Z,9.10
2018-03-15T14:06:26.492Z,9.20
2018-03-15T14:08:55.561Z,9.40
2018-03-15T14:11:23.740Z,9.40
2018-03-15T14:13:51.980Z,9.40
2018-03-15T14:16:20.217Z,9.30
2018-03-15T14:18:48.465Z,9.10
2018-03-15T14:21:16.696Z,9.00
2018-03-15T14:23:44.950Z,9.00
2018-03-15T14:26:13.188Z,9.10
2018-03-15T14:28:42.196Z,9.20
2018-03-15T14:31:11.201Z,9.10
2018-03-15T14:33:39.457Z,9.10
2018-03-15T14:36:07.699Z,9.00
2018-03-15T14:38:35.944Z,8.90
2018-03-15T14:41:04.176Z,8.70
2018-03-15T14:43:33.176Z,8.60
2018-03-15T14:46:01.418Z,8.50
2018-03-15T14:48:29.665Z,8.40
2018-03-15T14:50:57.892Z,8.30
2018-03-15T14:53:26.905Z,8.30
2018-03-15T14:55:55.140Z,8.30
2018-03-15T14:58:23.384Z,8.20
2018-03-15T15:00:51.624Z,8.20
2018-03-15T15:03:19.857Z,8.20
2018-03-15T15:05:48.113Z,8.10
2018-03-15T15:08:16.341Z,8.10
2018-03-15T15:10:44.587Z,8.10
2018-03-15T15:13:13.589Z,8.00
2018-03-15T15:15:42.600Z,8.10
2018-03-15T15:18:10.844Z,8.10
2018-03-15T15:20:39.084Z,8.00
2018-03-15T15:23:07.312Z,8.00
2018-03-15T15:25:35.556Z,8.00
2018-03-15T15:28:03.790Z,7.90
2018-03-15T15:30:32.041Z,7.80
2018-03-15T15:33:00.268Z,7.80
2018-03-15T15:35:28.516Z,7.80
2018-03-15T15:37:56.738Z,7.80
2018-03-15T15:40:25.748Z,7.60
2018-03-15T15:42:53.981Z,7.60
2018-03-15T15:45:22.233Z,7.50
2018-03-15T15:47:50.460Z,7.50
2018-03-15T15:50:19.520Z,7.50
2018-03-15T15:52:47.709Z,7.40
2018-03-15T15:55:16.724Z,7.40
2018-03-15T15:57:45.388Z,7.40
2018-03-15T16:00:13.624Z,7.40
2018-03-15T16:02:41.874Z,7.30
2018-03-15T16:05:10.116Z,7.30
2018-03-15T16:07:39.107Z,7.30
2018-03-15T16:10:08.109Z,7.20
2018-03-15T16:12:37.140Z,7.20
2018-03-15T16:15:05.353Z,7.20
2018-03-15T16:17:33.598Z,7.20
2018-03-15T16:20:01.832Z,7.10
2018-03-15T16:22:30.079Z,7.10
2018-03-15T16:24:59.077Z,7.10
2018-03-15T16:27:28.093Z,7.00
2018-03-15T16:29:56.325Z,7.00
2018-03-15T16:32:24.572Z,7.00
2018-03-15T16:34:52.804Z,6.90
2018-03-15T16:37:21.046Z,6.90
2018-03-15T16:39:49.285Z,6.80
2018-03-15T16:42:17.533Z,6.80
2018-03-15T16:44:45.767Z,6.80
2018-03-15T16:47:14.000Z,6.70
2018-03-15T16:49:42.629Z,6.70
2018-03-15T16:52:10.844Z,6.60
2018-03-15T16:54:39.077Z,6.60
2018-03-15T16:57:07.325Z,6.60
2018-03-15T16:59:35.557Z,6.60
2018-03-15T17:02:03.805Z,6.60
2018-03-15T17:04:32.801Z,6.50
2018-03-15T17:07:01.822Z,6.50
2018-03-15T17:09:30.469Z,6.50
2018-03-15T17:11:58.708Z,6.50
2018-03-15T17:14:26.949Z,6.40
2018-03-15T17:16:55.184Z,6.40
2018-03-15T17:19:23.420Z,6.30
2018-03-15T17:21:52.444Z,6.30
2018-03-15T17:24:20.683Z,6.30
2018-03-15T17:26:48.920Z,6.30
2018-03-15T17:29:17.172Z,6.20
2018-03-15T17:31:46.181Z,6.20
2018-03-15T17:34:15.198Z,6.20
2018-03-15T17:36:43.433Z,6.20
2018-03-15T17:39:12.452Z,6.10
2018-03-15T17:41:40.684Z,6.00
2018-03-15T17:44:08.922Z,6.00
2018-03-15T17:46:37.168Z,6.00
2018-03-15T17:49:05.737Z,5.90
2018-03-15T17:51:34.721Z,5.80
2018-03-15T17:54:03.729Z,5.70
2018-03-15T17:56:31.955Z,5.70
2018-03-15T17:59:00.197Z,5.70
2018-03-15T18:01:28.425Z,5.60
2018-03-15T18:03:56.692Z,5.60
2018-03-15T18:06:24.901Z,5.50
2018-03-15T18:08:53.149Z,5.50
2018-03-15T18:11:21.380Z,5.50
2018-03-15T18:13:49.632Z,5.40
2018-03-15T18:16:17.875Z,5.40
2018-03-15T18:18:46.102Z,5.40
2018-03-15T18:21:14.350Z,5.30
2018-03-15T18:23:42.572Z,5.30
2018-03-15T18:26:10.817Z,5.20
2018-03-15T18:28:39.050Z,5.20
2018-03-15T18:31:08.349Z,5.20
2018-03-15T18:33:36.573Z,5.10
2018-03-15T18:36:04.823Z,5.20
2018-03-15T18:38:33.051Z,5.10
2018-03-15T18:41:01.298Z,5.00
2018-03-15T18:43:30.289Z,5.00
2018-03-15T18:45:58.552Z,5.00
2018-03-15T18:48:26.783Z,5.00
2018-03-15T18:50:55.793Z,4.90
2018-03-15T18:53:24.032Z,4.90
2018-03-15T18:55:52.277Z,4.90
2018-03-15T18:58:20.560Z,4.90
2018-03-15T19:00:48.808Z,4.90
2018-03-15T19:03:17.045Z,4.90
2018-03-15T19:05:46.067Z,4.90
2018-03-15T19:08:14.321Z,4.90
2018-03-15T19:10:42.569Z,4.90
2018-03-15T19:13:10.801Z,4.80
2018-03-15T19:15:39.061Z,4.80
2018-03-15T19:18:07.294Z,4.80
2018-03-15T19:20:35.524Z,4.70
2018-03-15T19:23:03.768Z,4.70
2018-03-15T19:25:32.008Z,4.70
2018-03-15T19:28:00.252Z,4.70
2018-03-15T19:30:28.485Z,4.60
2018-03-15T19:32:56.736Z,4.60
2018-03-15T19:35:24.964Z,4.50
2018-03-15T19:37:53.218Z,4.50
2018-03-15T19:40:21.454Z,4.50
2018-03-15T19:42:49.688Z,4.50
2018-03-15T19:45:17.916Z,4.40
2018-03-15T19:47:46.934Z,4.40
2018-03-15T19:50:15.169Z,4.40
2018-03-15T19:52:43.408Z,4.40
2018-03-15T19:55:11.638Z,4.40
2018-03-15T19:57:39.882Z,4.40
2018-03-15T20:00:08.113Z,4.30
2018-03-15T20:02:36.361Z,4.30
2018-03-15T20:05:04.598Z,4.30
2018-03-15T20:07:32.846Z,4.30
2018-03-15T20:10:01.072Z,4.30
2018-03-15T20:12:30.089Z,4.30
2018-03-15T20:14:58.320Z,4.30
2018-03-15T20:17:26.566Z,4.30
2018-03-15T20:19:54.797Z,4.30
2018-03-15T20:22:28.654Z,4.30
2018-03-15T20:24:56.888Z,4.20
2018-03-15T20:27:30.700Z,4.30
2018-03-15T20:29:58.938Z,4.20
2018-03-15T20:32:33.662Z,4.20
2018-03-15T20:35:02.658Z,4.20
2018-03-15T20:37:31.660Z,4.20
2018-03-15T20:40:05.541Z,4.20
2018-03-15T20:42:33.768Z,4.20
2018-03-15T20:45:02.013Z,4.20
2018-03-15T20:47:35.933Z,4.20
2018-03-15T20:50:04.186Z,4.10
2018-03-15T20:52:33.180Z,4.10
2018-03-15T20:55:02.192Z,4.10
2018-03-15T20:57:30.424Z,4.10
2018-03-15T20:59:58.690Z,4.10
2018-03-15T21:02:26.893Z,4.10
2018-03-15T21:04:55.906Z,4.10
2018-03-15T21:07:24.136Z,4.10
2018-03-15T21:09:52.384Z,4.00
2018-03-15T21:12:20.614Z,4.00
2018-03-15T21:14:48.856Z,4.10
2018-03-15T21:17:17.091Z,4.00
2018-03-15T21:19:45.374Z,4.00
2018-03-15T21:22:13.561Z,4.00
2018-03-15T21:24:41.814Z,4.00
2018-03-15T21:27:10.114Z,4.00
2018-03-15T21:29:39.061Z,3.90
2018-03-15T21:32:07.303Z,3.90
2018-03-15T21:34:36.317Z,3.80
2018-03-15T21:37:04.552Z,3.80
2018-03-15T21:39:32.778Z,3.90
2018-03-15T21:42:01.020Z,3.90
2018-03-15T21:44:30.022Z,3.90
2018-03-15T21:46:58.272Z,3.80
2018-03-15T21:49:27.277Z,3.80
2018-03-15T21:51:56.287Z,3.80
2018-03-15T21:54:24.523Z,3.80
2018-03-15T21:56:52.770Z,3.80
2018-03-15T21:59:21.073Z,3.80
2018-03-15T22:01:49.295Z,3.80
2018-03-15T22:04:17.525Z,3.80
2018-03-15T22:06:45.773Z,3.80
2018-03-15T22:09:14.001Z,3.80
2018-03-15T22:11:42.247Z,3.80
2018-03-15T22:14:10.472Z,3.80
2018-03-15T22:16:38.715Z,3.80
2018-03-15T22:19:06.949Z,3.80
2018-03-15T22:21:35.196Z,3.80
2018-03-15T22:24:03.429Z,3.80
2018-03-15T22:26:32.449Z,3.70
2018-03-15T22:29:00.676Z,3.80
2018-03-15T22:31:28.925Z,3.80
2018-03-15T22:33:57.161Z,3.80
2018-03-15T22:36:25.404Z,3.80
2018-03-15T22:38:54.417Z,3.80
2018-03-15T22:41:22.669Z,3.80
2018-03-15T22:43:51.656Z,3.80
2018-03-15T22:46:20.675Z,3.80
2018-03-15T22:48:49.430Z,3.80
2018-03-15T22:51:17.628Z,3.80
2018-03-15T22:53:46.640Z,3.80
2018-03-15T22:56:14.878Z,3.80
2018-03-15T22:58:43.929Z,3.70
2018-03-15T23:01:12.165Z,3.70
2018-03-15T23:03:40.415Z,3.70
2018-03-15T23:06:08.641Z,3.70
2018-03-15T23:08:36.883Z,3.70
2018-03-15T23:11:05.881Z,3.80
2018-03-15T23:13:34.127Z,3.70
2018-03-15T23:16:02.352Z,3.80
2018-03-15T23:18:30.600Z,3.80
2018-03-15T23:20:58.828Z,3.80
2018-03-15T23:23:27.068Z,3.80
2018-03-15T23:25:55.296Z,3.80
2018-03-15T23:28:24.309Z,3.80
2018-03-15T23:30:52.544Z,3.80
2018-03-15T23:33:20.784Z,3.80
2018-03-15T23:35:49.016Z,3.80
2018-03-15T23:38:18.028Z,3.80
2018-03-15T23:40:46.273Z,3.80
2018-03-15T23:43:14.507Z,3.80
2018-03-15T23:45:42.861Z,3.80
2018-03-15T23:48:11.109Z,3.80
2018-03-15T23:50:40.114Z,3.90
2018-03-15T23:53:08.350Z,3.80
2018-03-15T23:55:36.588Z,3.80
2018-03-15T23:58:04.828Z,3.90
